Terminal Aerodrome Forecast
Issued by NWS

Home | Current Version | Previous Version | Text Only | Print | Product List | Glossary Off
Versions: 1 2 3 4 5 6 7 8 9 10 11 12 13 14 15 16 17 18 19

000
FTUS43 KIWX 262300 RRA
TAFSBN
TAF
KSBN 262340Z 2700/2724 20012KT P6SM VCSH SCT040 BKN080
     FM270200 21012KT P6SM SCT030 BKN060
     FM271300 23015G22KT P6SM SCT025
     FM271600 26016G25KT P6SM BKN040
     FM272300 29010KT P6SM SCT045=

USA.gov is the U.S. government's official web portal to all federal, state and local government web resources and services.